Latest Weather Observations for Kyancutta
Issued at 5:21 am CST Wednesday 2 September 2026 (issued every 10 minutes, with the page automatically refreshed every 10 minutes)
| Station Details | ID: 018233 | Name: KYANCUTTA | Lat: -33.13 | Lon: 135.56 | Height: 65.0 m |
| Date/Time CST |
Temp °C |
App Temp °C |
Dew Point °C |
Rel Hum % |
Delta-T °C |
Wind | Press QNH hPa |
Press MSL hPa |
Rain since 9am mm |
|||||
|---|---|---|---|---|---|---|---|---|---|---|---|---|---|---|
| Dir | Spd km/h |
Gust km/h |
Spd kts |
Gust kts |
||||||||||
| 02/05:00am | 11.2 | - | 10.9 | 98 | 0.2 | - | - | - | - | - | 1018.3 | 1018.3 | 0.0 | |
| 02/04:30am | 10.9 | - | 10.6 | 98 | 0.2 | - | - | - | - | - | 1018.0 | 1018.0 | 0.0 | |
| 02/04:00am | 11.2 | - | 11.0 | 99 | 0.1 | - | - | - | - | - | 1018.0 | 1018.0 | 0.0 | |
| 02/03:30am | 10.7 | - | 10.5 | 99 | 0.1 | - | - | - | - | - | 1018.2 | 1018.2 | 0.0 | |
| 02/03:00am | 10.3 | - | 10.1 | 99 | 0.1 | - | - | - | - | - | 1018.2 | 1018.2 | 0.0 | |
| 02/02:30am | 10.2 | - | 10.1 | 99 | 0.1 | - | - | - | - | - | 1018.5 | 1018.5 | 0.0 | |
| 02/02:00am | 9.8 | - | 9.7 | 99 | 0.1 | - | - | - | - | - | 1018.7 | 1018.7 | 0.0 | |
| 02/01:30am | 9.2 | - | 8.9 | 98 | 0.1 | - | - | - | - | - | 1018.8 | 1018.8 | 0.0 | |
| 02/01:00am | 9.7 | - | 9.2 | 97 | 0.2 | - | - | - | - | - | 1018.9 | 1018.9 | 0.0 | |
| 02/12:30am | 10.7 | - | 10.2 | 97 | 0.3 | - | - | - | - | - | 1018.8 | 1018.8 | 0.0 | |
| 02/12:00am | 11.4 | - | 10.9 | 97 | 0.3 | - | - | - | - | - | 1018.9 | 1018.9 | 0.0 | |
| Date/Time CST |
Temp °C |
App Temp °C |
Dew Point °C |
Rel Hum % |
Delta-T °C |
Wind | Press QNH hPa |
Press MSL hPa |
Rain since 9am mm |
|||||
|---|---|---|---|---|---|---|---|---|---|---|---|---|---|---|
| Dir | Spd km/h |
Gust km/h |
Spd kts |
Gust kts |
||||||||||
| 01/11:30pm | 12.2 | - | 11.6 | 96 | 0.3 | - | - | - | - | - | 1019.3 | 1019.3 | 0.0 | |
| 01/11:00pm | 12.9 | - | 12.3 | 96 | 0.3 | - | - | - | - | - | 1019.4 | 1019.4 | 0.0 | |
| 01/10:30pm | 12.6 | - | 12.1 | 97 | 0.3 | - | - | - | - | - | 1019.3 | 1019.3 | 0.0 | |
| 01/10:00pm | 12.9 | - | 12.1 | 95 | 0.4 | - | - | - | - | - | 1019.2 | 1019.2 | 0.0 | |
| 01/09:30pm | 13.2 | - | 12.6 | 96 | 0.3 | - | - | - | - | - | 1019.1 | 1019.1 | 0.0 | |
| 01/09:00pm | 13.6 | - | 12.5 | 93 | 0.6 | - | - | - | - | - | 1018.9 | 1018.9 | 0.0 | |
| 01/08:30pm | 14.4 | - | 13.1 | 92 | 0.7 | - | - | - | - | - | 1018.3 | 1018.3 | 0.0 | |
| 01/08:00pm | 15.1 | - | 13.3 | 89 | 1.0 | - | - | - | - | - | 1018.0 | 1018.0 | 0.0 | |
| 01/07:30pm | 15.2 | - | 12.9 | 86 | 1.3 | - | - | - | - | - | 1017.7 | 1017.7 | 0.0 | |
| 01/07:00pm | 15.7 | - | 12.5 | 81 | 1.8 | - | - | - | - | - | 1017.0 | 1016.9 | 0.0 | |
| 01/06:30pm | 16.6 | - | 11.5 | 72 | 2.8 | - | - | - | - | - | 1016.6 | 1016.5 | 0.0 | |
| 01/06:00pm | 19.0 | - | 10.8 | 59 | 4.4 | - | - | - | - | - | 1016.4 | 1016.3 | 0.0 | |
| 01/05:30pm | 21.2 | - | 9.8 | 48 | 6.1 | - | - | - | - | - | 1015.6 | 1015.5 | 0.0 | |
| 01/05:00pm | 20.5 | - | 10.3 | 52 | 5.5 | - | - | - | - | - | 1014.8 | 1014.7 | 0.0 | |
| 01/04:30pm | 21.3 | - | 8.9 | 45 | 6.6 | - | - | - | - | - | 1015.0 | 1014.9 | 0.0 | |
| 01/04:00pm | 21.5 | - | 8.7 | 44 | 6.8 | - | - | - | - | - | 1015.6 | 1015.5 | 0.0 | |
| 01/03:30pm | 22.5 | - | 6.7 | 36 | 8.1 | - | - | - | - | - | 1015.6 | 1015.5 | 0.0 | |
| 01/03:00pm | 24.4 | - | 7.5 | 34 | 8.9 | - | - | - | - | - | 1015.0 | 1014.9 | 0.0 | |
| 01/02:30pm | 23.9 | - | 9.1 | 39 | 8.0 | - | - | - | - | - | 1015.0 | 1014.9 | 0.0 | |
| 01/02:00pm | 22.5 | - | 10.0 | 45 | 6.8 | - | - | - | - | - | 1015.3 | 1015.2 | 0.0 | |
| 01/01:30pm | 22.7 | - | 8.8 | 41 | 7.4 | - | - | - | - | - | 1015.6 | 1015.5 | 0.0 | |
| 01/01:00pm | 22.0 | - | 8.9 | 43 | 7.0 | - | - | - | - | - | 1015.8 | 1015.7 | 0.0 | |
| 01/12:30pm | 21.4 | - | 7.6 | 41 | 7.1 | - | - | - | - | - | 1016.4 | 1016.3 | 0.0 | |
| 01/12:00pm | 21.3 | - | 7.2 | 40 | 7.2 | - | - | - | - | - | 1016.7 | 1016.6 | 0.0 | |
| 01/11:30am | 21.8 | - | 8.0 | 41 | 7.2 | - | - | - | - | - | 1016.8 | 1016.7 | 0.0 | |
| 01/11:00am | 22.5 | - | 7.9 | 39 | 7.7 | - | - | - | - | - | 1016.6 | 1016.5 | 0.0 | |
| 01/10:30am | 23.6 | - | 7.7 | 36 | 8.4 | - | - | - | - | - | 1016.8 | 1016.7 | 0.0 | |
| 01/10:00am | 22.8 | - | 7.8 | 38 | 7.9 | - | - | - | - | - | 1016.9 | 1016.8 | 0.0 | |
| 01/09:30am | 21.6 | - | 7.8 | 41 | 7.2 | - | - | - | - | - | 1017.2 | 1017.1 | 0.0 | |
| 01/09:00am | 20.2 | - | 8.2 | 46 | 6.2 | - | - | - | - | - | 1017.4 | 1017.4 | 0.0 | |
| 01/08:30am | 18.4 | - | 7.5 | 49 | 5.5 | - | - | - | - | - | 1017.6 | 1017.6 | 0.0 | |
| 01/08:00am | 16.6 | - | 7.0 | 53 | 4.8 | - | - | - | - | - | 1017.7 | 1017.7 | 0.0 | |
| 01/07:30am | 15.8 | - | 6.8 | 55 | 4.4 | - | - | - | - | - | 1017.4 | 1017.4 | 0.0 | |
| 01/07:00am | 13.1 | - | 6.7 | 65 | 3.1 | - | - | - | - | - | 1017.3 | 1017.3 | 0.0 | |
| 01/06:30am | 13.0 | - | 6.8 | 66 | 3.0 | - | - | - | - | - | 1017.3 | 1017.3 | 0.0 | |
| 01/06:00am | 12.9 | - | 7.4 | 69 | 2.7 | - | - | - | - | - | 1017.5 | 1017.5 | 0.0 | |
| 01/05:30am | 12.4 | - | 6.9 | 69 | 2.6 | - | - | - | - | - | 1017.7 | 1017.7 | 0.0 | |
| 01/05:00am | 12.0 | - | 6.7 | 70 | 2.5 | - | - | - | - | - | 1017.8 | 1017.8 | 0.0 | |
| 01/04:30am | 11.4 | - | 6.5 | 72 | 2.3 | - | - | - | - | - | 1017.9 | 1017.9 | 0.0 | |
| 01/04:00am | 10.1 | - | 6.4 | 78 | 1.7 | - | - | - | - | - | 1018.2 | 1018.2 | 0.0 | |
| 01/03:30am | 9.8 | - | 6.5 | 80 | 1.5 | - | - | - | - | - | 1018.7 | 1018.7 | 0.0 | |
| 01/03:00am | 8.8 | - | 6.1 | 83 | 1.2 | - | - | - | - | - | 1019.4 | 1019.4 | 0.0 | |
| 01/02:30am | 9.3 | - | 6.0 | 80 | 1.5 | - | - | - | - | - | 1020.0 | 1020.0 | 0.0 | |
| 01/02:00am | 9.8 | - | 6.2 | 78 | 1.7 | - | - | - | - | - | 1020.3 | 1020.3 | 0.0 | |
| 01/01:30am | 10.8 | - | 6.2 | 73 | 2.1 | - | - | - | - | - | 1020.7 | 1020.7 | 0.0 | |
| 01/01:00am | 11.6 | - | 6.3 | 70 | 2.5 | - | - | - | - | - | 1021.0 | 1021.0 | 0.0 | |
| 01/12:30am | 12.4 | - | 6.5 | 67 | 2.8 | - | - | - | - | - | 1021.1 | 1021.1 | 0.0 | |
| 01/12:00am | 13.1 | - | 6.5 | 64 | 3.2 | - | - | - | - | - | 1021.0 | 1021.0 | 0.0 | |
| Date/Time CST |
Temp °C |
App Temp °C |
Dew Point °C |
Rel Hum % |
Delta-T °C |
Wind | Press QNH hPa |
Press MSL hPa |
Rain since 9am mm |
|||||
|---|---|---|---|---|---|---|---|---|---|---|---|---|---|---|
| Dir | Spd km/h |
Gust km/h |
Spd kts |
Gust kts |
||||||||||
| 31/11:30pm | 12.9 | - | 6.7 | 66 | 3.0 | - | - | - | - | - | 1021.3 | 1021.3 | 0.0 | |
| 31/11:00pm | 10.8 | - | 6.6 | 75 | 2.0 | - | - | - | - | - | 1022.0 | 1022.1 | 0.0 | |
| 31/10:30pm | 10.8 | - | 6.4 | 74 | 2.1 | - | - | - | - | - | 1022.6 | 1022.7 | 0.0 | |
| 31/10:00pm | 10.6 | - | 6.4 | 75 | 2.0 | - | - | - | - | - | 1022.9 | 1023.0 | 0.0 | |
| 31/09:30pm | 10.8 | - | 6.6 | 75 | 2.0 | - | - | - | - | - | 1023.2 | 1023.3 | 0.0 | |
| 31/09:00pm | 11.3 | - | 6.8 | 74 | 2.1 | - | - | - | - | - | 1023.4 | 1023.5 | 0.0 | |
| 31/08:30pm | 12.0 | - | 7.1 | 72 | 2.3 | - | - | - | - | - | 1023.4 | 1023.5 | 0.0 | |
| 31/08:00pm | 12.2 | - | 7.7 | 74 | 2.2 | - | - | - | - | - | 1023.5 | 1023.6 | 0.0 | |
| 31/07:30pm | 13.3 | - | 8.6 | 73 | 2.3 | - | - | - | - | - | 1023.4 | 1023.5 | 0.0 | |
| 31/07:00pm | 14.5 | - | 8.9 | 69 | 2.9 | - | - | - | - | - | 1023.4 | 1023.5 | 0.0 | |
| 31/06:30pm | 16.1 | - | 9.3 | 64 | 3.5 | - | - | - | - | - | 1023.2 | 1023.3 | 0.0 | |
| 31/06:00pm | 19.1 | - | 9.6 | 54 | 5.0 | - | - | - | - | - | 1023.2 | 1023.3 | 0.0 | |
| 31/05:30pm | 21.4 | - | 9.0 | 45 | 6.6 | - | - | - | - | - | 1023.2 | 1023.3 | 0.0 | |
| 31/05:00pm | 22.1 | - | 8.6 | 42 | 7.2 | - | - | - | - | - | 1023.2 | 1023.3 | 0.0 | |
| 31/04:30pm | 22.6 | - | 7.2 | 37 | 8.0 | - | - | - | - | - | 1023.4 | 1023.5 | 0.0 | |
| 31/04:00pm | 22.9 | - | 7.8 | 38 | 7.9 | - | - | - | - | - | 1023.7 | 1023.8 | 0.0 | |
| 31/03:30pm | 23.0 | - | 6.7 | 35 | 8.4 | - | - | - | - | - | 1023.9 | 1024.0 | 0.0 | |
| 31/03:00pm | 23.0 | - | 6.3 | 34 | 8.5 | - | - | - | - | - | 1024.3 | 1024.4 | 0.0 | |
| 31/02:30pm | 23.0 | - | 7.1 | 36 | 8.2 | - | - | - | - | - | 1024.6 | 1024.7 | 0.0 | |
| 31/02:00pm | 22.7 | - | 6.5 | 35 | 8.3 | - | - | - | - | - | 1025.1 | 1025.2 | 0.0 | |
| 31/01:30pm | 22.4 | - | 5.8 | 34 | 8.3 | - | - | - | - | - | 1025.7 | 1025.8 | 0.0 | |
| 31/01:00pm | 21.9 | - | 7.0 | 38 | 7.7 | - | - | - | - | - | 1026.2 | 1026.3 | 0.0 | |
| 31/12:30pm | 21.7 | - | 7.2 | 39 | 7.4 | - | - | - | - | - | 1026.9 | 1027.0 | 0.0 | |
| 31/12:00pm | 21.1 | - | 7.3 | 41 | 7.1 | - | - | - | - | - | 1027.6 | 1027.7 | 0.0 | |
| 31/11:30am | 20.6 | - | 7.9 | 44 | 6.6 | - | - | - | - | - | 1028.1 | 1028.2 | 0.0 | |
| 31/11:00am | 19.5 | - | 8.8 | 50 | 5.6 | - | - | - | - | - | 1028.5 | 1028.6 | 0.0 | |
| 31/10:30am | 18.4 | - | 8.4 | 52 | 5.1 | - | - | - | - | - | 1028.9 | 1029.0 | 0.0 | |
| 31/10:00am | 17.7 | - | 10.6 | 63 | 3.8 | - | - | - | - | - | 1029.2 | 1029.3 | 0.0 | |
| 31/09:30am | 14.8 | - | 10.8 | 77 | 2.1 | - | - | - | - | - | 1029.5 | 1029.5 | 0.0 | |
| 31/09:00am | 12.3 | - | 9.5 | 83 | 1.4 | - | - | - | - | - | 1029.8 | 1029.8 | 0.0 | |
| 31/08:30am | 10.4 | - | 8.7 | 89 | 0.8 | - | - | - | - | - | 1029.8 | 1029.8 | 0.0 | |
| 31/08:00am | 8.9 | - | 7.5 | 91 | 0.7 | - | - | - | - | - | 1029.5 | 1029.5 | 0.0 | |
| 31/07:30am | 6.9 | - | 6.3 | 96 | 0.3 | - | - | - | - | - | 1029.3 | 1029.4 | 0.0 | |
| 31/07:00am | 4.8 | - | 4.5 | 98 | 0.1 | - | - | - | - | - | 1029.0 | 1029.1 | 0.0 | |
| 31/06:30am | 4.8 | - | 4.4 | 97 | 0.2 | - | - | - | - | - | 1028.9 | 1029.0 | 0.0 | |
| 31/06:00am | 5.1 | - | 4.7 | 97 | 0.2 | - | - | - | - | - | 1028.8 | 1028.9 | 0.0 | |
| 31/05:30am | 4.8 | - | 4.4 | 97 | 0.2 | - | - | - | - | - | 1029.0 | 1029.1 | 0.0 | |
| 31/05:00am | 5.0 | - | 4.7 | 98 | 0.1 | - | - | - | - | - | 1029.1 | 1029.2 | 0.0 | |
| 31/04:30am | 4.2 | - | 3.9 | 98 | 0.1 | - | - | - | - | - | 1029.2 | 1029.3 | 0.0 | |
| 31/04:00am | 3.6 | - | 3.2 | 97 | 0.2 | - | - | - | - | - | 1029.2 | 1029.3 | 0.0 | |
| 31/03:30am | 4.1 | - | 3.7 | 97 | 0.2 | - | - | - | - | - | 1029.5 | 1029.5 | 0.0 | |
| 31/03:00am | 4.3 | - | 3.6 | 95 | 0.3 | - | - | - | - | - | 1029.5 | 1029.5 | 0.0 | |
| 31/02:30am | 4.9 | - | 4.3 | 96 | 0.3 | - | - | - | - | - | 1029.9 | 1029.9 | 0.0 | |
| 31/02:00am | 5.0 | - | 4.3 | 95 | 0.3 | - | - | - | - | - | 1030.4 | 1030.4 | 0.0 | |
| 31/01:30am | 5.2 | - | 4.8 | 97 | 0.2 | - | - | - | - | - | 1030.5 | 1030.5 | 0.0 | |
| 31/01:00am | 4.6 | - | 3.6 | 93 | 0.4 | - | - | - | - | - | 1030.7 | 1030.7 | 0.0 | |
| 31/12:30am | 6.2 | - | 5.0 | 92 | 0.5 | - | - | - | - | - | 1030.7 | 1030.7 | 0.0 | |
| 31/12:00am | 6.2 | - | 4.8 | 91 | 0.6 | - | - | - | - | - | 1030.9 | 1030.9 | 0.0 | |
| Date/Time CST |
Temp °C |
App Temp °C |
Dew Point °C |
Rel Hum % |
Delta-T °C |
Wind | Press QNH hPa |
Press MSL hPa |
Rain since 9am mm |
||||
|---|---|---|---|---|---|---|---|---|---|---|---|---|---|
| Dir | Spd km/h |
Gust km/h |
Spd kts |
Gust kts |
|||||||||
| 30/11:30pm | 7.2 | - | 5.8 | 91 | 0.6 | - | - | - | - | - | 1031.2 | 1031.2 | 0.0 |
| 30/11:00pm | 7.9 | - | 5.9 | 87 | 0.9 | - | - | - | - | - | 1031.4 | 1031.4 | 0.0 |
| 30/10:30pm | 8.9 | - | 6.5 | 85 | 1.1 | - | - | - | - | - | 1031.6 | 1031.6 | 0.0 |
| 30/10:00pm | 10.1 | - | 7.2 | 82 | 1.4 | - | - | - | - | - | 1031.5 | 1031.5 | 0.0 |
| 30/09:30pm | 10.3 | - | 7.5 | 83 | 1.3 | - | - | - | - | - | 1031.2 | 1031.2 | 0.0 |
| 30/09:00pm | 11.1 | - | 8.1 | 82 | 1.5 | - | - | - | - | - | 1031.0 | 1031.0 | 0.0 |
| 30/08:30pm | 12.3 | - | 8.6 | 78 | 1.8 | - | - | - | - | - | 1030.8 | 1030.8 | 0.0 |
| 30/08:00pm | 13.3 | - | 9.2 | 76 | 2.1 | - | - | - | - | - | 1030.7 | 1030.7 | 0.0 |
| 30/07:30pm | 14.3 | - | 10.1 | 76 | 2.2 | - | - | - | - | - | 1030.3 | 1030.3 | 0.0 |
| 30/07:00pm | 15.0 | - | 11.6 | 80 | 1.8 | - | - | - | - | - | 1030.1 | 1030.1 | 0.0 |
| 30/06:30pm | 16.6 | - | 11.7 | 73 | 2.7 | - | - | - | - | - | 1029.9 | 1029.9 | 0.0 |
| 30/06:00pm | 18.3 | - | 11.1 | 63 | 3.9 | - | - | - | - | - | 1029.6 | 1029.6 | 0.0 |
| 30/05:30pm | 20.2 | - | 10.0 | 52 | 5.5 | - | - | - | - | - | 1029.6 | 1029.6 | 0.0 |
| 30/05:00pm | 21.3 | - | 8.6 | 44 | 6.7 | - | - | - | - | - | 1029.6 | 1029.6 | 0.0 |
| 30/04:30pm | 21.6 | - | 8.1 | 42 | 7.0 | - | - | - | - | - | 1029.6 | 1029.6 | 0.0 |
| 30/04:00pm | 21.8 | - | 7.2 | 39 | 7.5 | - | - | - | - | - | 1029.7 | 1029.7 | 0.0 |
| 30/03:30pm | 22.2 | - | 9.7 | 45 | 6.7 | - | - | - | - | - | 1029.9 | 1029.9 | 0.0 |
| 30/03:00pm | 22.3 | - | 9.8 | 45 | 6.7 | - | - | - | - | - | 1030.1 | 1030.1 | 0.0 |
| 30/02:30pm | 22.2 | - | 9.7 | 45 | 6.7 | - | - | - | - | - | 1030.3 | 1030.3 | 0.0 |
| 30/02:00pm | 22.3 | - | 10.1 | 46 | 6.7 | - | - | - | - | - | 1030.5 | 1030.5 | 0.0 |
| 30/01:30pm | 22.1 | - | 10.6 | 48 | 6.3 | - | - | - | - | - | 1031.0 | 1031.0 | 0.0 |
| 30/01:00pm | 21.7 | - | 9.3 | 45 | 6.7 | - | - | - | - | - | 1031.6 | 1031.6 | 0.0 |
| 30/12:30pm | 21.5 | - | 10.6 | 50 | 5.9 | - | - | - | - | - | 1032.0 | 1032.0 | 0.0 |
| 30/12:00pm | 20.8 | - | 10.0 | 50 | 5.8 | - | - | - | - | - | 1032.5 | 1032.5 | 0.0 |
| 30/11:30am | 20.1 | - | 11.6 | 58 | 4.7 | - | - | - | - | - | 1033.0 | 1033.0 | 0.0 |
| 30/11:00am | 19.2 | - | 11.5 | 61 | 4.2 | - | - | - | - | - | 1033.4 | 1033.4 | 0.0 |
| 30/10:30am | 18.1 | - | 11.2 | 64 | 3.7 | - | - | - | - | - | 1033.5 | 1033.5 | 0.0 |
| 30/10:00am | 16.4 | - | 11.1 | 71 | 2.9 | - | - | - | - | - | 1033.8 | 1033.8 | 0.0 |
| 30/09:30am | 15.2 | - | 11.4 | 78 | 2.0 | - | - | - | - | - | 1034.0 | 1034.0 | 0.0 |
| 30/09:00am | 13.4 | - | 11.1 | 86 | 1.2 | - | - | - | - | - | 1034.1 | 1034.1 | 0.0 |
| 30/08:30am | 11.7 | - | 10.3 | 91 | 0.7 | - | - | - | - | - | 1033.9 | 1033.9 | 0.0 |
| 30/08:00am | 7.8 | - | 7.7 | 99 | 0.0 | - | - | - | - | - | 1033.9 | 1033.9 | 0.0 |
| 30/07:30am | 5.0 | - | 4.9 | 99 | 0.0 | - | - | - | - | - | 1033.4 | 1033.4 | 0.0 |
| 30/07:00am | 3.4 | - | 3.1 | 98 | 0.1 | - | - | - | - | - | 1033.0 | 1033.0 | 0.0 |
| 30/06:30am | 3.4 | - | 3.1 | 98 | 0.1 | - | - | - | - | - | 1032.7 | 1032.7 | 0.0 |
| 30/06:00am | 3.5 | - | 3.2 | 98 | 0.1 | - | - | - | - | - | 1032.6 | 1032.6 | 0.0 |
| 30/05:30am | 3.6 | - | 3.2 | 97 | 0.2 | - | - | - | - | - | 1032.3 | 1032.3 | 0.0 |
Other formats
Comma delimited format used in spreadsheet applications
http://www.bom.gov.au/fwo/IDS60801/IDS60801.94145.axf
JavaScript Object Notation format (JSON) in row-major order
http://www.bom.gov.au/fwo/IDS60801/IDS60801.94145.json
Data quality
Most of these data are generated automatically and are frequently updated. Quality checks on data are not normally performed. It is possible for incorrect values to appear. Refer to information at About Latest Weather Observations and please check the disclaimer before using these data.
